Check out our new Dash Board

Active alerts


No alerts


Thunder radar  blitzortung!


Rain radar more information rain snow radar


Visit our other weather sites:

Template documentation
and downloads

And another site



Weather Underground History page Text

Daily Summary for March 25, 2019 Units:  English    Metric   Both
« Previous Day
Next Day »
Daily Weekly Monthly Yearly Custom
  Current: High: Low: Average:
Temperature: 68.7 °F TemperatureF °F 68.4 °F 67.3 °F
Dew Point: 67.5 °F DewpointF °F 66.7 °F 66 °F
Humidity: 96 % Humidity % 94 % 94 %
Wind Speed: 0.0 mph WindSpeedMPH mph 0.0 mph 0.2 mph
Wind Gust: 9.0 mph WindSpeedGustMPH mph - -
Wind:Calm - - South
Pressure: 30.01 in PressureIn in 30.01 in -
Precipitation: 0.00 in      
Historical Graphs
 
 
Tabular Data for March 25, 2019
Time Temperature Dew Point Pressure Wind Wind Speed Wind Gust Humidity Rainfall Rate (Hourly)
TemperatureF °F DewpointF °F PressureIn in Calm     Humidity % HourlyPrecipIn in
00:04 68.5 °F 67.1 °F 30.06 in Calm   2.0 mph 95 % 0.00 in
00:09 68.5 °F 67.1 °F 30.06 in Calm     95 % 0.00 in
00:14 68.4 °F 66.9 °F 30.06 in Calm     95 % 0.00 in
00:19 68.4 °F 66.9 °F 30.06 in Calm     95 % 0.00 in
00:24 68.4 °F 66.9 °F 30.06 in Calm     95 % 0.00 in
00:29 68.4 °F 66.9 °F 30.06 in Calm     95 % 0.00 in
00:34 68.4 °F 67.1 °F 30.06 in Calm     96 % 0.00 in
00:39 68.4 °F 67.1 °F 30.06 in Calm     96 % 0.00 in
00:44 68.4 °F 67.1 °F 30.06 in Calm     96 % 0.00 in
00:49 68.4 °F 67.1 °F 30.06 in Calm     96 % 0.00 in
00:54 68.4 °F 67.1 °F 30.06 in Calm     96 % 0.00 in
00:59 68.4 °F 67.1 °F 30.06 in Calm     96 % 0.00 in
01:04 68.4 °F 67.1 °F 30.06 in Calm     96 % 0.00 in
01:09 68.4 °F 67.1 °F 30.06 in Calm     96 % 0.00 in
01:14 68.4 °F 67.1 °F 30.06 in Calm     96 % 0.00 in
01:19 68.4 °F 67.1 °F 30.06 in Calm     96 % 0.00 in
01:24 68.4 °F 67.1 °F 30.06 in SSW 1.0 mph   96 % 0.00 in
01:29 68.5 °F 67.3 °F 30.06 in Calm   2.0 mph 96 % 0.00 in
01:34 68.5 °F 67.3 °F 30.06 in Calm   5.0 mph 96 % 0.00 in
01:39 68.7 °F 67.5 °F 30.06 in Calm   8.0 mph 96 % 0.00 in
01:44 68.7 °F 67.5 °F 30.06 in Calm   8.0 mph 96 % 0.00 in
01:49 68.7 °F 67.3 °F 30.06 in Calm   8.0 mph 95 % 0.00 in
01:54 68.9 °F 67.5 °F 30.05 in Calm   6.0 mph 95 % 0.00 in
01:59 68.9 °F 67.5 °F 30.05 in Calm   6.0 mph 95 % 0.00 in
02:04 68.9 °F 67.5 °F 30.05 in Calm   6.0 mph 95 % 0.00 in
02:09 68.9 °F 67.5 °F 30.05 in Calm   4.0 mph 95 % 0.00 in
02:14 68.9 °F 67.5 °F 30.05 in Calm   6.0 mph 95 % 0.00 in
02:19 69.1 °F 67.6 °F 30.04 in Calm   6.0 mph 95 % 0.00 in
02:24 69.1 °F 67.6 °F 30.04 in Calm   7.0 mph 95 % 0.00 in
02:29 68.9 °F 67.5 °F 30.04 in Calm   7.0 mph 95 % 0.00 in
02:34 69.1 °F 67.6 °F 30.04 in Calm   7.0 mph 95 % 0.00 in
02:39 68.9 °F 67.5 °F 30.03 in Calm   4.0 mph 95 % 0.00 in
02:44 68.9 °F 67.5 °F 30.03 in Calm   3.0 mph 95 % 0.00 in
02:49 68.9 °F 67.5 °F 30.03 in Calm   4.0 mph 95 % 0.00 in
02:54 68.9 °F 67.5 °F 30.03 in SSW 1.0 mph 4.0 mph 95 % 0.00 in
02:59 68.7 °F 67.3 °F 30.02 in Calm   6.0 mph 95 % 0.00 in
03:04 68.7 °F 67.3 °F 30.03 in SE 1.0 mph 6.0 mph 95 % 0.00 in
03:09 68.7 °F 67.3 °F 30.02 in Calm   6.0 mph 95 % 0.00 in
03:14 68.7 °F 67.3 °F 30.02 in Calm   7.0 mph 95 % 0.00 in
03:19 68.7 °F 67.3 °F 30.01 in SSE 3.0 mph 7.0 mph 95 % 0.00 in
03:24 68.7 °F 66.9 °F 30.01 in South 3.0 mph 10.0 mph 94 % 0.00 in
03:29 68.7 °F 66.9 °F 30.01 in Calm   10.0 mph 94 % 0.00 in
03:34 68.5 °F 66.7 °F 30.01 in Calm   11.0 mph 94 % 0.00 in
03:39 68.5 °F 66.7 °F 30.01 in Calm   11.0 mph 94 % 0.00 in
03:44 68.5 °F 66.7 °F 30.01 in Calm   11.0 mph 94 % 0.00 in
03:49 68.4 °F 66.9 °F 30.01 in Calm   4.0 mph 95 % 0.00 in
03:54 68.4 °F 66.9 °F 30.01 in Calm   2.0 mph 95 % 0.00 in
03:59 68.4 °F 66.9 °F 30.01 in Calm   8.0 mph 95 % 0.00 in
04:04 68.4 °F 66.9 °F 30.01 in Calm   8.0 mph 95 % 0.00 in
04:09 68.5 °F 67.1 °F 30.01 in Calm   8.0 mph 95 % 0.00 in
04:14 68.5 °F 67.3 °F 30.01 in Calm   4.0 mph 96 % 0.00 in
04:19 68.5 °F 67.3 °F 30.01 in South 4.0 mph 4.0 mph 96 % 0.00 in
04:24 68.7 °F 67.5 °F 30.01 in Calm   9.0 mph 96 % 0.00 in
Spring, Texas: Villages of Bridgestone
Compliments of Weather Underground - 1.5 mb

Script developed by  Jim McMurry - jmcmurry@mwt.net Adapted for the template by  Wim van der Kuil - Leuven-Template.eu

You find our weather info also at:

UK Metoffice

WeatherCloud

Weather Underground

Mid-South Weather Network

AWEKAS

Citizen Weather Observer Program (CWOP)

HAMweather, WeatherForYou, PWS Weather

Equipment we use:

Weather-station
Davis Vantage Vue

Weather-program
Meteohub

Weather-server
Debian 7.9 x86 (Guest)

Provider
DreamHost

Davis Vantage Vue

Meteohub

Debian 7.9 x86 (Guest)

DreamHost